createdAt,value
2022-10-09T00:01:21.954Z,16.36
2022-10-09T00:03:51.066Z,16.40
2022-10-09T00:06:22.085Z,16.39
2022-10-09T00:08:49.411Z,16.28
2022-10-09T00:11:23.021Z,16.27
2022-10-09T00:13:51.019Z,16.30
2022-10-09T00:16:21.094Z,16.30
2022-10-09T00:18:49.143Z,16.25
2022-10-09T00:21:21.656Z,16.25
2022-10-09T00:23:50.587Z,16.27
2022-10-09T00:26:18.756Z,16.16
2022-10-09T00:28:46.773Z,16.16
2022-10-09T00:31:15.130Z,16.08
2022-10-09T00:33:42.370Z,16.13
2022-10-09T00:36:19.149Z,16.14
2022-10-09T00:38:47.030Z,16.18
2022-10-09T00:41:23.240Z,16.10
2022-10-09T00:43:51.803Z,16.09
2022-10-09T00:46:42.120Z,16.07
2022-10-09T00:49:27.783Z,16.14
2022-10-09T00:51:59.943Z,16.12
2022-10-09T00:54:31.956Z,16.06
2022-10-09T00:57:00.198Z,16.03
2022-10-09T00:59:28.305Z,16.01
2022-10-09T01:01:55.849Z,15.99
2022-10-09T01:04:23.201Z,15.93
2022-10-09T01:06:56.520Z,15.91
2022-10-09T01:09:35.970Z,15.87
2022-10-09T01:12:29.329Z,15.82
2022-10-09T01:14:56.529Z,15.85
2022-10-09T01:17:35.470Z,15.84
2022-10-09T01:20:11.537Z,15.94
2022-10-09T01:22:48.192Z,15.99
2022-10-09T01:25:23.707Z,15.97
2022-10-09T01:27:51.156Z,16.02
2022-10-09T01:30:18.615Z,16.12
2022-10-09T01:32:51.098Z,16.17
2022-10-09T01:35:21.269Z,16.10
2022-10-09T01:37:52.242Z,16.13
2022-10-09T01:40:21.391Z,16.14
2022-10-09T01:42:48.837Z,16.18
2022-10-09T01:45:16.847Z,16.19
2022-10-09T01:47:44.209Z,16.28
2022-10-09T01:50:30.167Z,16.26
2022-10-09T01:53:01.784Z,16.29
2022-10-09T01:55:37.808Z,16.27
2022-10-09T01:58:09.359Z,16.22
2022-10-09T02:00:41.322Z,16.17
2022-10-09T02:03:13.264Z,16.21
2022-10-09T02:05:42.164Z,16.25
2022-10-09T02:08:12.769Z,16.16
2022-10-09T02:10:42.166Z,16.20
2022-10-09T02:13:09.698Z,16.22
2022-10-09T02:16:09.325Z,16.22
2022-10-09T02:18:55.181Z,16.24
2022-10-09T02:21:27.079Z,16.09
2022-10-09T02:23:56.387Z,16.12
2022-10-09T02:26:25.029Z,16.05
2022-10-09T02:28:52.407Z,16.15
2022-10-09T02:31:27.098Z,16.14
2022-10-09T02:33:59.452Z,16.17
2022-10-09T02:36:27.805Z,16.08
2022-10-09T02:38:55.725Z,16.10
2022-10-09T02:41:24.139Z,16.20
2022-10-09T02:43:51.437Z,16.14
2022-10-09T02:46:19.156Z,16.08
2022-10-09T02:48:46.472Z,15.97
2022-10-09T02:51:14.143Z,16.06
2022-10-09T02:53:41.347Z,16.04
2022-10-09T02:56:08.707Z,16.03
2022-10-09T02:58:36.733Z,16.04
2022-10-09T03:01:05.012Z,16.04
2022-10-09T03:03:32.516Z,16.00
2022-10-09T03:06:04.937Z,16.02
2022-10-09T03:08:32.773Z,15.95
2022-10-09T03:11:00.125Z,15.94
2022-10-09T03:13:27.549Z,15.91
2022-10-09T03:15:54.792Z,15.87
2022-10-09T03:18:22.156Z,15.81
2022-10-09T03:20:49.465Z,15.89
2022-10-09T03:23:16.772Z,15.91
2022-10-09T03:25:44.169Z,15.90
2022-10-09T03:28:11.442Z,15.90
2022-10-09T03:30:41.682Z,15.88
2022-10-09T03:33:08.975Z,15.81
2022-10-09T03:35:36.178Z,15.82
2022-10-09T03:38:03.481Z,15.77
2022-10-09T03:40:30.750Z,15.78
2022-10-09T03:42:58.146Z,15.74
2022-10-09T03:45:25.597Z,15.74
2022-10-09T03:47:52.904Z,15.72
2022-10-09T03:50:20.243Z,15.66
2022-10-09T03:52:47.807Z,15.70
2022-10-09T03:55:15.303Z,15.71
2022-10-09T03:57:42.616Z,15.68
2022-10-09T04:00:11.004Z,15.64
2022-10-09T04:02:38.316Z,15.64
2022-10-09T04:05:06.229Z,15.66
2022-10-09T04:07:34.407Z,15.60
2022-10-09T04:10:02.014Z,15.57
2022-10-09T04:12:29.318Z,15.55
2022-10-09T04:14:56.482Z,15.51
2022-10-09T04:17:23.831Z,15.41
2022-10-09T04:19:51.047Z,15.39
2022-10-09T04:22:18.562Z,15.36
2022-10-09T04:24:45.765Z,15.36
2022-10-09T04:27:13.330Z,15.35
2022-10-09T04:29:40.569Z,15.35
2022-10-09T04:32:08.122Z,15.31
2022-10-09T04:34:35.431Z,15.34
2022-10-09T04:37:02.745Z,15.34
2022-10-09T04:39:30.004Z,15.30
2022-10-09T04:41:57.292Z,15.27
2022-10-09T04:44:24.545Z,15.24
2022-10-09T04:46:52.117Z,15.18
2022-10-09T04:49:19.308Z,15.20
2022-10-09T04:51:47.833Z,15.16
2022-10-09T04:54:15.129Z,15.21
2022-10-09T04:56:42.365Z,15.16
2022-10-09T04:59:09.674Z,15.29
2022-10-09T05:01:38.500Z,15.20
2022-10-09T05:04:05.991Z,15.19
2022-10-09T05:06:33.240Z,15.16
2022-10-09T05:09:00.597Z,15.36
2022-10-09T05:11:27.912Z,15.23
2022-10-09T05:13:57.541Z,15.33
2022-10-09T05:16:28.024Z,15.40
2022-10-09T05:18:57.914Z,15.44
2022-10-09T05:21:27.044Z,15.46
2022-10-09T05:23:55.559Z,15.50
2022-10-09T05:26:24.724Z,15.50
2022-10-09T05:28:52.456Z,15.44
2022-10-09T05:31:30.106Z,15.27
2022-10-09T05:33:59.917Z,15.30
2022-10-09T05:36:27.375Z,15.28
2022-10-09T05:38:55.545Z,15.29
2022-10-09T05:41:22.998Z,15.21
2022-10-09T05:43:50.588Z,15.24
2022-10-09T05:46:23.459Z,15.33
2022-10-09T05:48:55.803Z,15.19
2022-10-09T05:51:27.519Z,15.30
2022-10-09T05:53:55.664Z,15.29
2022-10-09T05:56:28.461Z,15.32
2022-10-09T05:59:02.282Z,15.28
2022-10-09T06:01:35.560Z,15.29
2022-10-09T06:04:03.981Z,15.31
2022-10-09T06:06:35.870Z,15.23
2022-10-09T06:09:04.479Z,15.25
2022-10-09T06:11:34.529Z,15.28
2022-10-09T06:14:05.682Z,15.33
2022-10-09T06:16:35.450Z,15.37
2022-10-09T06:19:04.511Z,15.38
2022-10-09T06:21:32.540Z,15.42
2022-10-09T06:24:01.925Z,15.42
2022-10-09T06:26:30.154Z,15.54
2022-10-09T06:29:00.695Z,15.58
2022-10-09T06:31:30.749Z,15.61
2022-10-09T06:34:03.210Z,15.65
2022-10-09T06:36:34.743Z,15.67
2022-10-09T06:39:06.365Z,15.78
2022-10-09T06:41:34.908Z,15.78
2022-10-09T06:44:16.614Z,15.89
2022-10-09T06:46:48.282Z,15.94
2022-10-09T06:49:16.915Z,16.00
2022-10-09T06:51:46.196Z,16.10
2022-10-09T06:54:17.198Z,16.28
2022-10-09T06:56:45.104Z,16.31
2022-10-09T06:59:12.742Z,16.43
2022-10-09T07:01:40.165Z,16.48
2022-10-09T07:04:11.976Z,16.50
2022-10-09T07:06:42.043Z,16.54
2022-10-09T07:09:13.157Z,16.67
2022-10-09T07:11:46.013Z,16.78
2022-10-09T07:14:15.982Z,16.85
2022-10-09T07:16:46.477Z,16.93
2022-10-09T07:19:15.648Z,17.04
2022-10-09T07:21:45.324Z,17.18
2022-10-09T07:24:13.460Z,17.39
2022-10-09T07:26:45.176Z,17.50
2022-10-09T07:29:16.884Z,17.72
2022-10-09T07:31:45.977Z,17.90
2022-10-09T07:34:13.500Z,18.12
2022-10-09T07:36:40.774Z,18.42
2022-10-09T07:39:08.138Z,18.66
2022-10-09T07:41:35.787Z,18.94
2022-10-09T07:44:03.702Z,19.01
2022-10-09T07:46:33.747Z,19.10
2022-10-09T07:49:02.387Z,19.20
2022-10-09T07:51:31.261Z,19.43
2022-10-09T07:54:00.379Z,19.39
2022-10-09T07:56:31.072Z,19.55
2022-10-09T07:59:00.985Z,19.62
2022-10-09T08:01:29.894Z,19.63
2022-10-09T08:03:58.815Z,19.68
2022-10-09T08:06:26.973Z,19.75
2022-10-09T08:08:56.120Z,19.80
2022-10-09T08:11:25.583Z,19.86
2022-10-09T08:13:53.706Z,19.83
2022-10-09T08:16:23.551Z,19.93
2022-10-09T08:18:57.833Z,20.00
2022-10-09T08:21:26.051Z,20.03
2022-10-09T08:23:57.510Z,20.03
2022-10-09T08:26:26.731Z,20.23
2022-10-09T08:28:57.278Z,20.27
2022-10-09T08:31:25.564Z,20.49
2022-10-09T08:33:54.626Z,20.47
2022-10-09T08:36:23.174Z,20.48
2022-10-09T08:38:52.029Z,20.61
2022-10-09T08:41:38.887Z,20.69
2022-10-09T08:44:29.096Z,20.75
2022-10-09T08:47:07.821Z,20.81
2022-10-09T08:49:41.128Z,21.10
2022-10-09T08:52:24.586Z,21.18
2022-10-09T08:54:58.316Z,21.32
2022-10-09T08:57:33.284Z,21.43
2022-10-09T09:00:01.148Z,21.51
2022-10-09T09:02:40.621Z,21.65
2022-10-09T09:05:37.211Z,21.65
2022-10-09T09:08:12.046Z,21.77
2022-10-09T09:11:27.713Z,21.74
2022-10-09T09:14:24.212Z,21.74
2022-10-09T09:17:01.703Z,21.89
2022-10-09T09:19:41.174Z,22.04
2022-10-09T09:22:16.090Z,22.21
2022-10-09T09:24:48.505Z,22.33
2022-10-09T09:27:28.750Z,22.19
2022-10-09T09:30:03.803Z,22.07
2022-10-09T09:32:32.989Z,22.00
2022-10-09T09:35:17.027Z,22.01
2022-10-09T09:37:44.509Z,22.08
2022-10-09T09:43:18.876Z,22.27
2022-10-09T09:45:49.732Z,22.20
2022-10-09T09:48:38.136Z,22.21
2022-10-09T09:51:28.097Z,22.10
2022-10-09T09:54:25.477Z,22.06
2022-10-09T09:57:11.861Z,21.88
2022-10-09T09:59:43.254Z,21.89
2022-10-09T10:02:26.145Z,21.89
2022-10-09T10:04:58.203Z,21.92
2022-10-09T10:07:39.973Z,22.09
2022-10-09T10:10:07.513Z,22.34
2022-10-09T10:12:40.675Z,22.36
2022-10-09T10:15:37.418Z,22.30
2022-10-09T10:18:14.148Z,22.22
2022-10-09T10:20:46.610Z,22.08
2022-10-09T10:23:36.469Z,22.11
2022-10-09T10:26:28.299Z,22.10
2022-10-09T10:29:17.871Z,21.91
2022-10-09T10:31:52.186Z,21.76
2022-10-09T10:34:43.158Z,21.79
2022-10-09T10:37:13.574Z,21.81
2022-10-09T10:39:44.967Z,21.85
2022-10-09T10:42:21.214Z,21.80
2022-10-09T10:45:03.877Z,21.93
2022-10-09T10:47:37.045Z,21.98
2022-10-09T10:50:04.602Z,22.13
2022-10-09T10:52:53.520Z,22.34
2022-10-09T10:55:37.059Z,22.48
2022-10-09T10:58:18.542Z,22.53
2022-10-09T11:01:04.300Z,22.60
2022-10-09T11:04:03.026Z,22.60
2022-10-09T11:06:39.378Z,22.68
2022-10-09T11:09:44.791Z,22.61
2022-10-09T11:12:48.174Z,22.42
2022-10-09T11:15:27.513Z,22.34
2022-10-09T11:18:19.644Z,22.23
2022-10-09T11:21:23.683Z,22.21
2022-10-09T11:24:18.728Z,22.23
2022-10-09T11:27:03.336Z,22.12
2022-10-09T11:29:35.242Z,22.09
2022-10-09T11:32:15.243Z,22.07
2022-10-09T11:34:57.985Z,22.18
2022-10-09T11:37:38.607Z,22.36
2022-10-09T11:40:12.220Z,22.61
2022-10-09T11:42:40.563Z,22.69
2022-10-09T11:45:24.262Z,22.62
2022-10-09T11:48:08.680Z,22.64
2022-10-09T11:51:01.035Z,22.60
2022-10-09T11:53:34.373Z,22.54
2022-10-09T11:56:07.783Z,22.55
2022-10-09T11:58:35.838Z,22.54
2022-10-09T12:01:23.132Z,22.71
2022-10-09T12:04:53.869Z,22.79
2022-10-09T12:07:32.136Z,23.16
2022-10-09T12:10:06.191Z,23.25
2022-10-09T12:12:37.619Z,23.27
2022-10-09T12:15:24.938Z,23.35
2022-10-09T12:17:52.359Z,23.48
2022-10-09T12:20:25.993Z,23.55
2022-10-09T12:23:21.889Z,23.48
2022-10-09T12:25:46.303Z,23.48
2022-10-09T12:28:30.068Z,23.45
2022-10-09T12:31:01.063Z,23.32
2022-10-09T12:33:43.642Z,23.22
2022-10-09T12:36:14.621Z,23.11
2022-10-09T12:38:43.255Z,23.06
2022-10-09T12:41:23.071Z,23.18
2022-10-09T12:43:54.331Z,23.34
2022-10-09T12:46:37.013Z,23.36
2022-10-09T12:49:14.876Z,23.44
2022-10-09T12:51:42.118Z,23.46
2022-10-09T12:54:10.450Z,23.61
2022-10-09T12:56:39.578Z,23.62
2022-10-09T12:59:08.688Z,23.41
2022-10-09T13:01:36.061Z,23.29
2022-10-09T13:04:05.686Z,23.39
2022-10-09T13:06:38.255Z,23.32
2022-10-09T13:09:08.332Z,23.47
2022-10-09T13:11:44.713Z,23.63
2022-10-09T13:14:33.947Z,23.67
2022-10-09T13:17:02.094Z,23.59
2022-10-09T13:19:35.597Z,23.48
2022-10-09T13:22:26.620Z,23.47
2022-10-09T13:24:56.919Z,23.50
2022-10-09T13:27:31.782Z,23.51
2022-10-09T13:30:00.525Z,23.66
2022-10-09T13:32:27.947Z,23.67
2022-10-09T13:34:55.314Z,23.44
2022-10-09T13:37:24.701Z,23.14
2022-10-09T13:39:57.562Z,22.92
2022-10-09T13:42:27.669Z,22.92
2022-10-09T13:44:55.070Z,23.00
2022-10-09T13:47:24.645Z,23.16
2022-10-09T13:49:52.188Z,23.22
2022-10-09T13:52:19.402Z,23.28
2022-10-09T13:54:47.877Z,23.25
2022-10-09T13:57:15.099Z,23.11
2022-10-09T13:59:45.865Z,23.15
2022-10-09T14:02:13.394Z,23.20
2022-10-09T14:04:40.881Z,23.08
2022-10-09T14:07:08.154Z,23.19
2022-10-09T14:09:35.549Z,23.24
2022-10-09T14:12:02.821Z,23.29
2022-10-09T14:14:30.141Z,23.29
2022-10-09T14:16:57.706Z,23.35
2022-10-09T14:19:28.145Z,23.21
2022-10-09T14:21:55.812Z,23.15
2022-10-09T14:24:24.433Z,23.15
2022-10-09T14:26:51.998Z,23.07
2022-10-09T14:29:19.423Z,22.86
2022-10-09T14:31:49.000Z,22.92
2022-10-09T14:34:16.225Z,22.88
2022-10-09T14:36:43.645Z,22.88
2022-10-09T14:39:11.679Z,22.94
2022-10-09T14:41:39.125Z,22.92
2022-10-09T14:44:07.189Z,22.86
2022-10-09T14:46:41.902Z,22.75
2022-10-09T14:49:10.641Z,22.65
2022-10-09T14:51:39.752Z,22.65
2022-10-09T14:54:08.407Z,22.52
2022-10-09T14:56:36.299Z,22.42
2022-10-09T14:59:05.938Z,22.44
2022-10-09T15:01:33.996Z,22.36
2022-10-09T15:04:02.352Z,22.25
2022-10-09T15:06:29.677Z,22.38
2022-10-09T15:09:05.321Z,22.35
2022-10-09T15:11:34.433Z,22.35
2022-10-09T15:14:02.145Z,22.41
2022-10-09T15:16:29.513Z,22.38
2022-10-09T15:18:57.154Z,22.40
2022-10-09T15:21:30.680Z,22.47
2022-10-09T15:23:59.615Z,22.36
2022-10-09T15:26:29.164Z,22.36
2022-10-09T15:28:59.866Z,22.31
2022-10-09T15:31:30.886Z,22.30
2022-10-09T15:34:01.066Z,22.18
2022-10-09T15:36:30.657Z,22.09
2022-10-09T15:39:00.081Z,22.02
2022-10-09T15:41:30.135Z,22.07
2022-10-09T15:44:02.201Z,21.99
2022-10-09T15:46:29.833Z,21.91
2022-10-09T15:48:57.260Z,21.95
2022-10-09T15:51:25.548Z,21.93
2022-10-09T15:53:59.100Z,21.83
2022-10-09T15:56:26.941Z,21.84
2022-10-09T15:58:55.945Z,21.75
2022-10-09T16:01:23.805Z,21.67
2022-10-09T16:03:52.157Z,21.62
2022-10-09T16:06:20.917Z,21.60
2022-10-09T16:08:48.314Z,21.59
2022-10-09T16:11:21.699Z,21.52
2022-10-09T16:13:52.521Z,21.43
2022-10-09T16:16:20.704Z,21.41
2022-10-09T16:18:48.201Z,21.30
2022-10-09T16:21:16.967Z,21.28
2022-10-09T16:23:44.702Z,21.24
2022-10-09T16:26:13.666Z,21.21
2022-10-09T16:28:40.845Z,21.18
2022-10-09T16:31:08.028Z,21.11
2022-10-09T16:33:35.426Z,21.05
2022-10-09T16:36:09.940Z,21.04
2022-10-09T16:38:37.552Z,20.99
2022-10-09T16:41:07.431Z,20.91
2022-10-09T16:43:34.962Z,20.86
2022-10-09T16:46:21.044Z,20.86
2022-10-09T16:48:49.319Z,20.78
2022-10-09T16:51:18.126Z,20.71
2022-10-09T16:53:48.282Z,20.61
2022-10-09T16:56:16.644Z,20.38
2022-10-09T16:58:43.685Z,20.41
2022-10-09T17:01:11.084Z,20.33
2022-10-09T17:03:41.383Z,20.43
2022-10-09T17:06:09.720Z,20.52
2022-10-09T17:08:36.795Z,20.65
2022-10-09T17:11:07.991Z,20.63
2022-10-09T17:13:35.546Z,20.67
2022-10-09T17:16:14.423Z,20.61
2022-10-09T17:18:44.285Z,20.54
2022-10-09T17:21:12.325Z,20.52
2022-10-09T17:23:39.806Z,20.56
2022-10-09T17:26:07.773Z,20.59
2022-10-09T17:28:34.946Z,20.61
2022-10-09T17:31:03.093Z,20.72
2022-10-09T17:33:30.184Z,20.88
2022-10-09T17:35:57.340Z,20.84
2022-10-09T17:38:24.719Z,20.78
2022-10-09T17:40:51.813Z,20.73
2022-10-09T17:43:19.205Z,20.67
2022-10-09T17:45:48.776Z,20.65
2022-10-09T17:48:15.809Z,20.58
2022-10-09T17:50:50.066Z,20.59
2022-10-09T17:53:18.101Z,20.67
2022-10-09T17:55:45.234Z,20.44
2022-10-09T17:58:12.285Z,20.48
2022-10-09T18:00:39.897Z,20.38
2022-10-09T18:03:07.078Z,20.16
2022-10-09T18:05:41.337Z,20.08
2022-10-09T18:08:08.868Z,19.73
2022-10-09T18:10:39.980Z,19.54
2022-10-09T18:13:08.330Z,19.17
2022-10-09T18:15:39.268Z,19.07
2022-10-09T18:18:06.835Z,19.03
2022-10-09T18:20:35.731Z,18.78
2022-10-09T18:23:04.220Z,18.70
2022-10-09T18:25:31.979Z,18.49
2022-10-09T18:27:59.443Z,18.41
2022-10-09T18:30:27.736Z,18.22
2022-10-09T18:32:55.161Z,18.27
2022-10-09T18:35:22.618Z,18.25
2022-10-09T18:37:49.969Z,18.23
2022-10-09T18:40:17.286Z,18.30
2022-10-09T18:42:44.614Z,18.30
2022-10-09T18:45:14.601Z,18.33
2022-10-09T18:47:42.203Z,18.27
2022-10-09T18:50:12.484Z,18.35
2022-10-09T18:52:44.107Z,18.50
2022-10-09T18:55:14.700Z,18.24
2022-10-09T18:57:42.635Z,18.18
2022-10-09T19:00:10.129Z,18.33
2022-10-09T19:02:37.390Z,18.47
2022-10-09T19:05:04.681Z,18.47
2022-10-09T19:07:31.785Z,18.43
2022-10-09T19:09:58.865Z,18.55
2022-10-09T19:12:25.990Z,18.55
2022-10-09T19:14:53.026Z,18.61
2022-10-09T19:17:20.223Z,18.70
2022-10-09T19:19:47.288Z,18.71
2022-10-09T19:22:17.297Z,18.67
2022-10-09T19:24:45.264Z,18.73
2022-10-09T19:27:12.446Z,18.69
2022-10-09T19:29:39.563Z,18.63
2022-10-09T19:32:06.596Z,18.71
2022-10-09T19:34:33.666Z,18.74
2022-10-09T19:37:00.988Z,18.57
2022-10-09T19:39:28.110Z,18.58
2022-10-09T19:41:55.365Z,18.61
2022-10-09T19:44:22.503Z,18.69
2022-10-09T19:46:49.749Z,18.71
2022-10-09T19:49:17.066Z,18.70
2022-10-09T19:51:45.352Z,18.59
2022-10-09T19:54:12.853Z,18.65
2022-10-09T19:56:40.458Z,18.66
2022-10-09T19:59:08.394Z,18.79
2022-10-09T20:01:37.693Z,18.71
2022-10-09T20:04:11.766Z,18.75
2022-10-09T20:06:48.018Z,18.80
2022-10-09T20:09:16.121Z,18.69
2022-10-09T20:11:43.390Z,18.71
2022-10-09T20:14:10.926Z,18.74
2022-10-09T20:16:38.809Z,18.79
2022-10-09T20:19:06.081Z,18.72
2022-10-09T20:21:33.940Z,18.66
2022-10-09T20:24:01.508Z,18.64
2022-10-09T20:26:29.800Z,18.61
2022-10-09T20:28:57.296Z,18.61
2022-10-09T20:31:26.036Z,18.51
2022-10-09T20:33:54.253Z,18.56
2022-10-09T20:36:23.256Z,18.48
2022-10-09T20:38:50.654Z,18.52
2022-10-09T20:41:17.720Z,18.46
2022-10-09T20:43:45.134Z,18.50
2022-10-09T20:46:13.825Z,18.41
2022-10-09T20:48:41.392Z,18.39
2022-10-09T20:51:09.756Z,18.34
2022-10-09T20:53:37.434Z,18.35
2022-10-09T20:56:07.829Z,18.38
2022-10-09T20:58:35.379Z,18.32
2022-10-09T21:01:06.272Z,18.27
2022-10-09T21:03:34.320Z,18.22
2022-10-09T21:06:08.798Z,18.20
2022-10-09T21:08:36.106Z,18.08
2022-10-09T21:11:07.527Z,18.12
2022-10-09T21:13:35.194Z,18.14
2022-10-09T21:16:04.765Z,18.13
2022-10-09T21:18:31.892Z,18.13
2022-10-09T21:21:03.224Z,18.19
2022-10-09T21:23:30.337Z,18.12
2022-10-09T21:25:58.134Z,18.19
2022-10-09T21:28:25.490Z,18.07
2022-10-09T21:30:52.624Z,17.98
2022-10-09T21:33:19.596Z,18.03
2022-10-09T21:35:48.184Z,17.98
2022-10-09T21:38:19.747Z,18.01
2022-10-09T21:40:49.220Z,18.04
2022-10-09T21:43:16.718Z,18.02
2022-10-09T21:45:44.175Z,18.03
2022-10-09T21:48:14.507Z,17.97
2022-10-09T21:50:41.578Z,17.89
2022-10-09T21:53:08.832Z,17.91
2022-10-09T21:55:37.009Z,17.73
2022-10-09T21:58:04.751Z,17.64
2022-10-09T22:00:31.949Z,17.43
2022-10-09T22:02:58.964Z,17.53
2022-10-09T22:05:26.113Z,17.28
2022-10-09T22:07:53.253Z,17.26
2022-10-09T22:10:20.325Z,17.38
2022-10-09T22:12:47.630Z,17.41
2022-10-09T22:15:14.849Z,17.50
2022-10-09T22:17:41.954Z,17.56
2022-10-09T22:20:09.155Z,17.56
2022-10-09T22:22:36.244Z,17.60
2022-10-09T22:25:03.513Z,17.66
2022-10-09T22:27:30.643Z,17.66
2022-10-09T22:29:57.601Z,17.73
2022-10-09T22:32:24.739Z,17.72
2022-10-09T22:34:52.154Z,17.69
2022-10-09T22:37:19.188Z,17.68
2022-10-09T22:39:46.307Z,17.66
2022-10-09T22:42:13.352Z,17.68
2022-10-09T22:44:40.410Z,17.73
2022-10-09T22:47:07.434Z,17.70
2022-10-09T22:49:34.412Z,17.75
2022-10-09T22:52:01.625Z,17.81
2022-10-09T22:54:28.598Z,17.73
2022-10-09T22:56:55.609Z,17.77
2022-10-09T22:59:22.730Z,17.76
2022-10-09T23:01:53.336Z,17.54
2022-10-09T23:04:20.994Z,17.50
2022-10-09T23:06:55.763Z,17.49
2022-10-09T23:09:24.081Z,17.42
2022-10-09T23:11:51.619Z,17.19
2022-10-09T23:14:18.836Z,17.29
2022-10-09T23:16:45.915Z,17.51
2022-10-09T23:19:13.044Z,17.49
2022-10-09T23:21:41.178Z,17.52
2022-10-09T23:24:08.693Z,17.41
2022-10-09T23:26:36.218Z,17.52
2022-10-09T23:29:13.329Z,17.51
2022-10-09T23:31:40.392Z,17.46
2022-10-09T23:34:07.433Z,17.57
2022-10-09T23:36:34.663Z,17.49
2022-10-09T23:39:02.168Z,17.31
2022-10-09T23:41:29.699Z,17.35
2022-10-09T23:43:57.133Z,17.55
2022-10-09T23:46:25.861Z,17.51
2022-10-09T23:48:53.154Z,17.28
2022-10-09T23:51:20.896Z,17.02
2022-10-09T23:53:48.085Z,17.05
2022-10-09T23:56:18.041Z,16.91
2022-10-09T23:58:45.740Z,16.87
